Time;durP1;ratioP1;P1;durP2;ratioP2;P2;SDS_P1;SDS_P2;PMS_P1;PMS_P2;Temp;Humidity;BMP_temperature;BMP_pressure;BME280_temperature;BME280_humidity;BME280_pressure;Samples;Min_cycle;Max_cycle;Signal;HPM_P1;HPM_P2
2024/02/03 00:02:21;;;;;;;14.25;5.75;;;8.60;99.90;;;;;;5027595;28;20652;-83
2024/02/03 00:04:48;;;;;;;2.90;2.80;;;8.60;99.90;;;;;;5022010;28;20648;-81
2024/02/03 00:07:15;;;;;;;17.55;12.05;;;8.50;99.90;;;;;;5017292;28;20613;-80
2024/02/03 00:09:42;;;;;;;6.25;5.30;;;8.50;99.90;;;;;;5020294;28;20223;-84
2024/02/03 00:12:11;;;;;;;9.57;4.93;;;8.50;99.90;;;;;;5023485;28;20200;-83
2024/02/03 00:14:40;;;;;;;10.05;5.60;;;8.50;99.90;;;;;;5025055;28;20184;-84
2024/02/03 00:17:07;;;;;;;10.15;5.90;;;8.50;99.90;;;;;;5030129;28;20260;-85
2024/02/03 00:19:34;;;;;;;6.38;4.97;;;8.50;99.90;;;;;;5027054;28;20201;-85
2024/02/03 00:22:01;;;;;;;8.27;6.55;;;8.50;99.90;;;;;;5019760;28;20664;-83
2024/02/03 00:24:28;;;;;;;13.48;6.13;;;8.50;99.90;;;;;;5022991;28;20278;-83
2024/02/03 00:26:55;;;;;;;9.57;5.65;;;8.50;99.90;;;;;;5028766;28;20196;-83
2024/02/03 00:29:22;;;;;;;3.40;2.78;;;8.50;99.90;;;;;;5023407;28;20197;-79
2024/02/03 00:31:50;;;;;;;11.93;4.72;;;8.50;99.90;;;;;;5025924;28;20188;-83
2024/02/03 00:34:17;;;;;;;10.32;6.63;;;8.50;99.90;;;;;;5025964;28;20212;-81
2024/02/03 00:36:44;;;;;;;8.27;5.68;;;8.50;99.90;;;;;;5029430;28;20632;-82
2024/02/03 00:39:11;;;;;;;5.93;5.13;;;8.50;99.90;;;;;;5027308;28;20266;-81
2024/02/03 00:41:37;;;;;;;1.65;1.55;;;8.50;99.90;;;;;;5018330;28;20223;-79
2024/02/03 00:44:05;;;;;;;3.00;2.28;;;8.50;99.90;;;;;;5014729;28;20255;-81
2024/02/03 00:46:32;;;;;;;7.50;3.63;;;8.50;99.90;;;;;;5014848;28;20232;-81
2024/02/03 00:49:00;;;;;;;2.67;2.50;;;8.50;99.90;;;;;;5019904;28;20224;-81
2024/02/03 00:51:27;;;;;;;4.78;3.22;;;8.50;99.90;;;;;;5020474;28;20231;-79
2024/02/03 00:53:53;;;;;;;5.18;2.55;;;8.50;99.90;;;;;;5027765;28;20209;-78
2024/02/03 00:56:20;;;;;;;9.40;6.10;;;8.50;99.90;;;;;;5026212;28;20268;-77
2024/02/03 00:58:47;;;;;;;8.43;4.13;;;8.50;99.90;;;;;;5025087;28;20228;-78
2024/02/03 01:01:14;;;;;;;8.77;5.65;;;8.50;99.90;;;;;;5027109;28;20223;-78
2024/02/03 01:03:42;;;;;;;2.83;1.88;;;8.50;99.90;;;;;;5026657;28;20679;-79
2024/02/03 01:06:10;;;;;;;5.00;4.65;;;8.60;99.90;;;;;;5023922;28;20260;-79
2024/02/03 01:08:37;;;;;;;2.78;2.45;;;8.50;99.90;;;;;;5023153;28;20208;-79
2024/02/03 01:11:04;;;;;;;3.05;2.85;;;8.60;99.90;;;;;;5022257;28;20193;-78
2024/02/03 01:13:31;;;;;;;10.13;5.30;;;8.50;99.90;;;;;;5022442;28;20220;-79
2024/02/03 01:15:59;;;;;;;7.00;6.43;;;8.60;99.90;;;;;;5019251;28;20207;-81
2024/02/03 01:18:26;;;;;;;8.23;6.70;;;8.60;99.90;;;;;;5015767;28;20254;-81
2024/02/03 01:20:53;;;;;;;4.80;4.40;;;8.60;99.90;;;;;;5015533;28;20197;-80
2024/02/03 01:23:21;;;;;;;8.43;6.28;;;8.60;99.90;;;;;;5015023;28;20839;-80
2024/02/03 01:25:49;;;;;;;14.32;8.05;;;8.60;99.90;;;;;;5015391;28;20240;-81
2024/02/03 01:28:16;;;;;;;9.63;7.68;;;8.60;99.90;;;;;;5014679;28;20204;-80
2024/02/03 01:30:43;;;;;;;1.73;1.73;;;8.60;99.90;;;;;;5006873;28;20224;-81
2024/02/03 01:33:10;;;;;;;2.15;1.75;;;8.60;99.90;;;;;;5014510;28;20639;-80
2024/02/03 01:35:37;;;;;;;1.42;1.42;;;8.60;99.90;;;;;;5015483;28;20280;-80
2024/02/03 01:38:04;;;;;;;1.67;1.55;;;8.60;99.90;;;;;;5014725;28;20196;-80
2024/02/03 01:40:32;;;;;;;4.22;3.85;;;8.60;99.90;;;;;;5014419;28;20220;-81
2024/02/03 01:43:01;;;;;;;1.25;1.25;;;8.70;99.90;;;;;;5015114;28;20299;-81
2024/02/03 01:45:28;;;;;;;9.50;3.13;;;8.70;99.90;;;;;;5015056;28;20216;-81
2024/02/03 01:47:56;;;;;;;12.15;6.28;;;8.70;99.90;;;;;;5015213;28;20749;-81
2024/02/03 01:50:23;;;;;;;1.20;1.20;;;8.70;99.90;;;;;;5015231;28;20231;-81
2024/02/03 01:52:51;;;;;;;7.88;4.53;;;8.70;99.90;;;;;;5007198;28;20681;-82
2024/02/03 01:55:20;;;;;;;1.40;1.30;;;8.70;99.90;;;;;;5014581;28;20220;-82
2024/02/03 01:57:52;;;;;;;4.55;3.67;;;8.70;99.90;;;;;;5014158;28;20239;-81
2024/02/03 02:00:19;;;;;;;0.85;0.85;;;8.70;99.90;;;;;;5015176;28;20699;-80
2024/02/03 02:02:46;;;;;;;6.75;4.57;;;8.70;99.90;;;;;;5013880;28;20328;-81
2024/02/03 02:05:13;;;;;;;5.18;2.33;;;8.70;99.90;;;;;;5014445;28;20307;-80
2024/02/03 02:07:44;;;;;;;4.32;4.03;;;8.70;99.90;;;;;;5013945;28;20204;-82
2024/02/03 02:10:11;;;;;;;2.70;2.40;;;8.70;99.90;;;;;;5014301;28;20270;-82
2024/02/03 02:12:38;;;;;;;7.88;5.70;;;8.70;99.90;;;;;;5012846;28;20221;-81
2024/02/03 02:15:07;;;;;;;3.08;2.60;;;8.70;99.90;;;;;;5014746;28;20674;-81
2024/02/03 02:17:36;;;;;;;2.47;1.33;;;8.70;99.90;;;;;;5014619;28;20199;-82
2024/02/03 02:20:07;;;;;;;3.38;2.67;;;8.70;99.90;;;;;;5011015;28;20205;-81
2024/02/03 02:22:34;;;;;;;2.75;1.60;;;8.70;99.90;;;;;;5009825;28;20228;-82
2024/02/03 02:25:01;;;;;;;6.68;2.35;;;8.70;99.90;;;;;;5008602;28;20307;-81
2024/02/03 02:27:28;;;;;;;0.77;0.77;;;8.70;99.90;;;;;;5014178;28;20238;-80
2024/02/03 02:29:55;;;;;;;2.42;2.17;;;8.80;99.90;;;;;;5014496;28;20572;-80
2024/02/03 02:32:22;;;;;;;2.00;0.75;;;8.80;99.90;;;;;;5008797;28;20204;-81
2024/02/03 02:34:49;;;;;;;2.63;2.33;;;8.80;99.90;;;;;;5004356;28;20224;-79
2024/02/03 02:37:17;;;;;;;4.53;3.83;;;8.80;99.90;;;;;;5006259;28;20215;-79
2024/02/03 02:39:44;;;;;;;2.47;1.92;;;8.80;99.90;;;;;;5008630;28;20197;-81
2024/02/03 02:42:11;;;;;;;5.50;4.15;;;8.80;99.90;;;;;;5006338;28;20227;-80
2024/02/03 02:44:38;;;;;;;6.68;3.50;;;8.80;99.90;;;;;;5004661;28;20303;-81
2024/02/03 02:47:05;;;;;;;3.47;2.72;;;8.80;99.90;;;;;;5010584;28;20280;-80
2024/02/03 02:49:32;;;;;;;2.15;1.02;;;8.80;99.90;;;;;;5004056;28;20196;-81
2024/02/03 02:51:59;;;;;;;5.10;4.03;;;8.80;99.90;;;;;;5005114;28;20863;-81
2024/02/03 02:54:27;;;;;;;12.70;10.23;;;8.80;99.90;;;;;;5009520;28;20617;-80
2024/02/03 02:56:54;;;;;;;1.10;1.10;;;8.80;99.90;;;;;;5011041;28;20220;-79
2024/02/03 02:59:21;;;;;;;2.70;2.50;;;8.80;99.90;;;;;;5012929;28;20234;-80
2024/02/03 03:01:48;;;;;;;7.60;4.20;;;8.80;99.90;;;;;;5010821;28;20218;-80
2024/02/03 03:04:15;;;;;;;5.85;4.75;;;8.80;99.90;;;;;;5012629;28;20216;-79
2024/02/03 03:06:42;;;;;;;7.95;6.95;;;8.80;99.90;;;;;;5018463;28;21095;-81
2024/02/03 03:09:09;;;;;;;6.55;5.60;;;8.80;99.90;;;;;;5016239;28;20283;-81
2024/02/03 03:11:37;;;;;;;1.40;0.95;;;8.90;99.90;;;;;;5009011;28;20202;-82
2024/02/03 03:14:07;;;;;;;6.75;4.05;;;8.90;99.90;;;;;;5007516;28;20216;-78
2024/02/03 03:16:33;;;;;;;11.48;3.85;;;8.90;99.90;;;;;;5007066;28;20212;-80
2024/02/03 03:19:00;;;;;;;0.98;0.50;;;8.90;99.90;;;;;;5017864;28;20212;-81
2024/02/03 03:21:27;;;;;;;10.60;8.27;;;8.90;99.90;;;;;;5005573;28;20258;-81
2024/02/03 03:23:54;;;;;;;4.10;3.80;;;8.90;99.90;;;;;;5008449;28;20231;-82
2024/02/03 03:26:21;;;;;;;3.53;2.85;;;8.90;99.90;;;;;;5015357;28;20220;-81
2024/02/03 03:28:49;;;;;;;1.98;1.60;;;8.90;99.90;;;;;;5014603;28;20689;-81
2024/02/03 03:31:16;;;;;;;2.85;2.65;;;8.90;99.90;;;;;;5005961;28;20197;-81
2024/02/03 03:33:42;;;;;;;0.40;0.40;;;8.90;99.90;;;;;;5008571;28;20216;-81
2024/02/03 03:36:11;;;;;;;10.40;4.65;;;9.00;99.90;;;;;;5004313;28;20204;-81
2024/02/03 03:38:42;;;;;;;2.63;2.25;;;9.00;99.90;;;;;;5005158;28;20211;-81
2024/02/03 03:41:10;;;;;;;0.98;0.80;;;9.00;99.90;;;;;;5012112;28;20272;-80
2024/02/03 03:43:37;;;;;;;4.38;3.97;;;9.00;99.90;;;;;;5010718;28;20216;-81
2024/02/03 03:46:05;;;;;;;3.15;1.75;;;9.00;99.90;;;;;;5005705;28;20216;-81
2024/02/03 03:48:32;;;;;;;2.65;1.85;;;9.00;99.90;;;;;;5009391;28;20207;-80
2024/02/03 03:50:59;;;;;;;1.70;1.60;;;9.00;99.90;;;;;;5005007;28;20203;-79
2024/02/03 03:53:26;;;;;;;5.82;3.90;;;9.00;99.90;;;;;;5009505;28;20216;-80
2024/02/03 03:55:52;;;;;;;4.70;3.80;;;9.00;99.90;;;;;;5015681;28;20557;-80
2024/02/03 03:58:19;;;;;;;1.90;1.58;;;9.00;99.90;;;;;;5017680;28;20196;-80
2024/02/03 04:00:46;;;;;;;3.75;2.55;;;9.00;99.90;;;;;;5015585;28;20192;-81
2024/02/03 04:03:14;;;;;;;13.10;9.07;;;9.10;99.90;;;;;;5016606;28;20208;-80
2024/02/03 04:05:41;;;;;;;5.28;2.65;;;9.10;99.90;;;;;;5012078;28;20299;-80
2024/02/03 04:08:10;;;;;;;8.40;5.03;;;9.00;99.90;;;;;;5007016;28;20204;-80
2024/02/03 04:10:37;;;;;;;9.50;6.38;;;9.00;99.90;;;;;;5006968;28;20201;-78
2024/02/03 04:13:04;;;;;;;3.28;2.42;;;9.00;99.90;;;;;;5011017;28;20308;-80
2024/02/03 04:15:31;;;;;;;2.25;1.92;;;9.00;99.90;;;;;;5016213;28;20225;-79
2024/02/03 04:17:58;;;;;;;1.77;1.67;;;9.00;99.90;;;;;;5016601;28;20297;-78
2024/02/03 04:20:26;;;;;;;3.25;3.05;;;9.00;99.90;;;;;;5015577;28;20204;-77
2024/02/03 04:22:53;;;;;;;3.65;3.28;;;9.00;99.90;;;;;;5014697;28;20227;-80
2024/02/03 04:25:20;;;;;;;5.65;3.90;;;9.00;99.90;;;;;;5014787;28;20214;-79
2024/02/03 04:27:47;;;;;;;1.92;1.75;;;9.00;99.90;;;;;;5009181;28;20193;-80
2024/02/03 04:30:14;;;;;;;1.70;1.60;;;9.00;99.90;;;;;;5012778;28;20212;-80
2024/02/03 04:32:40;;;;;;;4.22;3.33;;;8.90;99.90;;;;;;5010317;28;20732;-79
2024/02/03 04:35:08;;;;;;;1.15;1.05;;;8.90;99.90;;;;;;5013794;28;20188;-79
2024/02/03 04:37:36;;;;;;;6.07;4.45;;;8.90;99.90;;;;;;5011321;28;20574;-80
2024/02/03 04:40:03;;;;;;;2.30;2.20;;;8.90;99.90;;;;;;5016776;28;20193;-80
2024/02/03 04:42:30;;;;;;;4.38;3.92;;;8.90;99.90;;;;;;5009550;28;20267;-79
2024/02/03 04:44:57;;;;;;;2.28;2.00;;;8.90;99.90;;;;;;5010031;28;20227;-78
2024/02/03 04:47:23;;;;;;;1.52;1.20;;;8.90;99.90;;;;;;5004533;28;20200;-79
2024/02/03 04:49:50;;;;;;;5.25;4.78;;;8.90;99.90;;;;;;5006233;28;20196;-80
2024/02/03 04:52:17;;;;;;;3.90;3.30;;;8.90;99.90;;;;;;5004423;28;20675;-79
2024/02/03 04:54:45;;;;;;;5.93;5.30;;;8.90;99.90;;;;;;5009236;28;20585;-80
2024/02/03 04:57:12;;;;;;;4.97;4.57;;;8.90;99.90;;;;;;5011100;28;20207;-80
2024/02/03 04:59:38;;;;;;;4.65;2.05;;;8.90;99.90;;;;;;5016462;28;20220;-80
2024/02/03 05:02:05;;;;;;;6.28;4.65;;;8.90;99.90;;;;;;5010368;28;20195;-80
2024/02/03 05:04:32;;;;;;;0.82;0.82;;;8.90;99.90;;;;;;5013628;28;20220;-80
2024/02/03 05:06:59;;;;;;;10.00;6.88;;;8.90;99.90;;;;;;5010584;28;20216;-79
2024/02/03 05:09:26;;;;;;;14.32;9.80;;;8.90;99.90;;;;;;5007906;28;20275;-80
2024/02/03 05:11:54;;;;;;;9.43;6.05;;;8.90;99.90;;;;;;5009903;28;20231;-79
2024/02/03 05:14:21;;;;;;;6.97;5.45;;;9.00;99.90;;;;;;5009476;28;20216;-81
2024/02/03 05:16:47;;;;;;;10.70;7.90;;;9.00;99.90;;;;;;5011767;28;20192;-80
2024/02/03 05:19:14;;;;;;;3.50;3.22;;;9.00;99.90;;;;;;5013845;28;20200;-80
2024/02/03 05:21:45;;;;;;;3.42;2.35;;;9.00;99.90;;;;;;5004210;28;20287;-79
2024/02/03 05:24:11;;;;;;;4.93;4.05;;;9.00;99.90;;;;;;5002840;28;20623;-80
2024/02/03 05:26:38;;;;;;;1.10;1.10;;;9.00;99.90;;;;;;5007113;28;20216;-80
2024/02/03 05:29:06;;;;;;;0.77;0.50;;;9.00;99.90;;;;;;5013982;28;20192;-79
2024/02/03 05:31:33;;;;;;;1.80;1.52;;;9.00;99.90;;;;;;5005912;28;20189;-79
2024/02/03 05:34:00;;;;;;;6.60;4.22;;;9.00;99.90;;;;;;5006388;28;20216;-78
2024/02/03 05:36:27;;;;;;;2.28;2.15;;;9.00;99.90;;;;;;5009376;28;20196;-78
2024/02/03 05:38:53;;;;;;;1.00;0.82;;;9.00;99.90;;;;;;5004561;28;20571;-78
2024/02/03 05:41:20;;;;;;;3.25;3.10;;;9.00;99.90;;;;;;5005181;28;20200;-79
2024/02/03 05:43:47;;;;;;;2.45;1.38;;;9.00;99.90;;;;;;5004286;28;20569;-78
2024/02/03 05:46:15;;;;;;;1.50;1.40;;;9.00;99.90;;;;;;5011057;28;20212;-79
2024/02/03 05:48:42;;;;;;;10.65;1.50;;;9.00;99.90;;;;;;5001704;28;20652;-79
2024/02/03 05:51:09;;;;;;;3.60;3.30;;;9.00;99.90;;;;;;5006713;28;20571;-78
2024/02/03 05:53:36;;;;;;;1.67;1.50;;;9.00;99.90;;;;;;5005385;28;20217;-78
2024/02/03 05:56:03;;;;;;;2.55;2.45;;;9.00;99.90;;;;;;5005556;28;20692;-78
2024/02/03 05:58:30;;;;;;;14.02;7.40;;;9.00;99.90;;;;;;5008068;28;20468;-79
2024/02/03 06:00:57;;;;;;;7.38;3.38;;;9.00;99.90;;;;;;5010409;28;20579;-79
2024/02/03 06:03:25;;;;;;;1.38;1.27;;;9.00;99.90;;;;;;5007284;28;20215;-77
2024/02/03 06:05:52;;;;;;;9.52;4.40;;;9.00;99.90;;;;;;5008897;28;20208;-78
2024/02/03 06:08:19;;;;;;;3.90;2.45;;;9.00;99.90;;;;;;5002229;28;20197;-78
2024/02/03 06:10:45;;;;;;;1.63;1.52;;;8.90;99.90;;;;;;5006365;28;20189;-79
2024/02/03 06:13:12;;;;;;;0.75;0.75;;;8.90;99.90;;;;;;5013582;28;20218;-78
2024/02/03 06:15:39;;;;;;;3.00;2.65;;;8.90;99.90;;;;;;5007768;28;20192;-79
2024/02/03 06:18:06;;;;;;;2.70;2.50;;;8.90;99.90;;;;;;5013475;28;20197;-77
2024/02/03 06:20:35;;;;;;;4.82;2.55;;;8.90;99.90;;;;;;5010457;28;20199;-80
2024/02/03 06:23:01;;;;;;;2.22;2.08;;;8.90;99.90;;;;;;5002546;28;20228;-78
2024/02/03 06:25:28;;;;;;;0.73;0.73;;;8.90;99.90;;;;;;5009887;28;20231;-79
2024/02/03 06:27:55;;;;;;;6.03;4.00;;;8.90;99.90;;;;;;5010773;28;20205;-79
2024/02/03 06:30:22;;;;;;;2.20;1.85;;;8.90;99.90;;;;;;5002312;28;20197;-78
2024/02/03 06:32:48;;;;;;;1.25;0.75;;;8.90;99.90;;;;;;5011078;28;20219;-79
2024/02/03 06:35:15;;;;;;;2.22;1.98;;;8.90;99.90;;;;;;5010158;28;20199;-78
2024/02/03 06:37:43;;;;;;;2.55;1.80;;;9.00;99.90;;;;;;5012326;28;20211;-78
2024/02/03 06:40:11;;;;;;;5.82;2.80;;;8.90;99.90;;;;;;5009817;28;20204;-78
2024/02/03 06:42:38;;;;;;;3.55;2.95;;;8.90;99.90;;;;;;5010538;28;20219;-78
2024/02/03 06:45:06;;;;;;;1.60;0.80;;;8.90;99.90;;;;;;5007461;28;20648;-79
2024/02/03 06:47:33;;;;;;;0.60;0.60;;;9.00;99.90;;;;;;5002505;28;20220;-78
2024/02/03 06:49:59;;;;;;;1.58;1.48;;;9.00;99.90;;;;;;5010835;28;20673;-78
2024/02/03 06:52:26;;;;;;;2.40;1.90;;;9.00;99.90;;;;;;5011870;28;20193;-79
2024/02/03 06:54:54;;;;;;;6.38;4.30;;;9.00;99.90;;;;;;5007613;28;20196;-79
2024/02/03 06:57:21;;;;;;;1.52;1.42;;;9.00;99.90;;;;;;5003753;28;20203;-79
2024/02/03 06:59:48;;;;;;;4.82;3.20;;;9.00;99.90;;;;;;5005502;28;20192;-78
2024/02/03 07:02:15;;;;;;;0.88;0.60;;;9.00;99.90;;;;;;5002957;28;20200;-77
2024/02/03 07:04:41;;;;;;;7.82;4.47;;;9.00;99.90;;;;;;5005772;28;20660;-78
2024/02/03 07:07:08;;;;;;;8.27;6.55;;;9.00;99.90;;;;;;5000323;28;20228;-78
2024/02/03 07:09:35;;;;;;;7.03;4.43;;;9.00;99.90;;;;;;5000063;28;20196;-79
2024/02/03 07:12:04;;;;;;;3.30;3.03;;;9.00;99.90;;;;;;5004069;28;20652;-79
2024/02/03 07:14:30;;;;;;;0.50;0.50;;;9.00;99.90;;;;;;5004041;28;20218;-79
2024/02/03 07:16:57;;;;;;;2.42;2.17;;;9.00;99.90;;;;;;5002392;28;20467;-80
2024/02/03 07:19:24;;;;;;;5.22;4.75;;;9.00;99.90;;;;;;5000215;28;20291;-80
2024/02/03 07:21:51;;;;;;;1.02;0.90;;;9.00;99.90;;;;;;5008139;28;20193;-79
2024/02/03 07:24:18;;;;;;;14.20;9.55;;;9.00;99.90;;;;;;5008116;28;20233;-79
2024/02/03 07:26:44;;;;;;;2.22;2.13;;;9.10;99.90;;;;;;5003026;28;20611;-79
2024/02/03 07:29:12;;;;;;;1.58;1.13;;;9.00;99.90;;;;;;5010628;28;20323;-79
2024/02/03 07:31:39;;;;;;;2.25;1.65;;;9.10;99.90;;;;;;5007738;28;20209;-79
2024/02/03 07:34:06;;;;;;;0.43;0.40;;;9.10;99.90;;;;;;5006714;28;20219;-79
2024/02/03 07:36:33;;;;;;;1.42;0.75;;;9.00;99.90;;;;;;5009866;28;20207;-81
2024/02/03 07:39:01;;;;;;;1.92;1.83;;;9.00;99.90;;;;;;5010014;28;20283;-81
2024/02/03 07:41:28;;;;;;;2.42;2.22;;;9.10;99.90;;;;;;5003649;28;20687;-80
2024/02/03 07:43:55;;;;;;;14.63;4.88;;;9.10;99.90;;;;;;5008196;28;20775;-81
2024/02/03 07:46:23;;;;;;;2.35;2.15;;;9.10;99.90;;;;;;5009692;28;20300;-78
2024/02/03 07:48:50;;;;;;;5.72;2.67;;;9.10;99.90;;;;;;5008638;28;20192;-81
2024/02/03 07:51:16;;;;;;;6.43;4.53;;;9.10;99.90;;;;;;5003729;28;21746;-81
2024/02/03 07:53:43;;;;;;;0.40;0.30;;;9.10;99.90;;;;;;5007772;28;20588;-80
2024/02/03 07:56:10;;;;;;;5.25;4.75;;;9.10;99.90;;;;;;5010262;28;20212;-83
2024/02/03 07:58:37;;;;;;;5.25;1.92;;;9.10;99.90;;;;;;5009998;28;20192;-82
2024/02/03 08:01:04;;;;;;;2.90;2.33;;;9.10;99.90;;;;;;5013644;28;20192;-80
2024/02/03 08:03:32;;;;;;;4.35;2.05;;;9.10;99.90;;;;;;5011255;28;20300;-80
2024/02/03 08:06:00;;;;;;;3.53;2.60;;;9.10;99.90;;;;;;5016126;28;20563;-81
2024/02/03 08:08:27;;;;;;;7.22;2.05;;;9.10;99.90;;;;;;5016133;28;20196;-81
2024/02/03 08:10:54;;;;;;;4.53;1.65;;;9.10;99.90;;;;;;5020975;28;20558;-82
2024/02/03 08:13:21;;;;;;;1.15;1.05;;;9.10;99.90;;;;;;5015255;28;20228;-82
2024/02/03 08:15:47;;;;;;;2.77;2.33;;;9.10;99.90;;;;;;5016873;28;20197;-80
2024/02/03 08:18:14;;;;;;;13.15;5.38;;;9.10;99.90;;;;;;5019559;28;20447;-81
2024/02/03 08:20:42;;;;;;;17.57;4.03;;;9.20;99.90;;;;;;5018132;28;20197;-82
2024/02/03 08:23:09;;;;;;;0.40;0.40;;;9.20;99.90;;;;;;5026623;28;20527;-82
2024/02/03 08:25:36;;;;;;;2.90;2.05;;;9.20;99.90;;;;;;5022830;28;20193;-83
2024/02/03 08:28:04;;;;;;;3.50;1.63;;;9.20;99.90;;;;;;5022608;28;20223;-82
2024/02/03 08:30:30;;;;;;;2.67;1.42;;;9.20;99.90;;;;;;5021141;28;20494;-83
2024/02/03 08:32:57;;;;;;;0.98;0.98;;;9.20;99.90;;;;;;5020321;28;20216;-83
2024/02/03 08:35:24;;;;;;;8.65;5.25;;;9.20;99.90;;;;;;5018305;28;20200;-84
2024/02/03 08:37:52;;;;;;;11.95;6.00;;;9.20;99.90;;;;;;5023038;28;20199;-81
2024/02/03 08:40:19;;;;;;;3.08;2.63;;;9.20;99.90;;;;;;5024927;28;20704;-78
2024/02/03 08:42:46;;;;;;;0.93;0.93;;;9.20;99.90;;;;;;5022889;28;20215;-83
2024/02/03 08:45:13;;;;;;;0.60;0.60;;;9.20;99.90;;;;;;5019679;28;20532;-80
2024/02/03 08:47:40;;;;;;;6.55;2.45;;;9.20;99.90;;;;;;5016547;28;20212;-80
2024/02/03 08:50:07;;;;;;;2.55;1.85;;;9.20;99.90;;;;;;5024375;28;20203;-81
2024/02/03 08:52:34;;;;;;;2.75;2.50;;;9.30;99.90;;;;;;5017146;28;20197;-82
2024/02/03 08:55:02;;;;;;;6.40;3.27;;;9.30;99.90;;;;;;5016245;28;20733;-81
2024/02/03 08:57:29;;;;;;;37.90;4.10;;;9.30;99.90;;;;;;5015199;28;20498;-80
2024/02/03 08:59:56;;;;;;;0.60;0.60;;;9.30;99.90;;;;;;5016804;28;20207;-79
2024/02/03 09:02:23;;;;;;;2.35;2.15;;;9.30;99.90;;;;;;5016355;28;20215;-79
2024/02/03 09:04:49;;;;;;;6.30;3.95;;;9.30;99.90;;;;;;5017972;28;20196;-79
2024/02/03 09:07:16;;;;;;;8.88;8.15;;;9.40;99.90;;;;;;5016684;28;20218;-81
2024/02/03 09:09:43;;;;;;;0.55;0.52;;;9.30;99.90;;;;;;5017222;28;20205;-81
2024/02/03 09:12:12;;;;;;;10.07;4.97;;;9.40;99.90;;;;;;5015345;28;20635;-80
2024/02/03 09:14:38;;;;;;;6.60;3.78;;;9.40;99.90;;;;;;5015658;28;20208;-81
2024/02/03 09:17:05;;;;;;;1.60;0.98;;;9.50;99.90;;;;;;5020247;28;20196;-81
2024/02/03 09:19:32;;;;;;;1.23;1.08;;;9.50;99.90;;;;;;5011290;28;20207;-81
2024/02/03 09:21:59;;;;;;;1.75;1.65;;;9.50;99.90;;;;;;5017290;28;20200;-82
2024/02/03 09:24:25;;;;;;;0.60;0.60;;;9.50;99.90;;;;;;5017124;28;20220;-82
2024/02/03 09:26:52;;;;;;;0.40;0.40;;;9.50;99.90;;;;;;5016215;28;20574;-80
2024/02/03 09:29:20;;;;;;;2.90;2.53;;;9.60;99.90;;;;;;5020520;28;20188;-81
2024/02/03 09:31:47;;;;;;;8.33;2.13;;;9.60;99.90;;;;;;5014947;28;20854;-81
2024/02/03 09:34:14;;;;;;;0.50;0.50;;;9.60;99.90;;;;;;5017435;28;20475;-78
2024/02/03 09:36:41;;;;;;;1.60;1.30;;;9.60;99.90;;;;;;5013876;28;20215;-79
2024/02/03 09:39:08;;;;;;;1.77;1.30;;;9.60;99.90;;;;;;5014930;28;20204;-79
2024/02/03 09:41:35;;;;;;;2.05;1.52;;;9.60;99.90;;;;;;5020120;28;20188;-79
2024/02/03 09:44:03;;;;;;;4.63;3.03;;;9.60;99.90;;;;;;5017607;28;20303;-79
2024/02/03 09:46:32;;;;;;;2.53;2.30;;;9.60;99.90;;;;;;5018206;28;20271;-81
2024/02/03 09:48:59;;;;;;;2.40;1.47;;;9.60;99.90;;;;;;5019073;28;20534;-79
2024/02/03 09:51:26;;;;;;;0.50;0.40;;;9.60;99.90;;;;;;5017557;28;20499;-79
2024/02/03 09:53:54;;;;;;;5.80;3.20;;;9.60;99.90;;;;;;5018710;28;20569;-78
2024/02/03 09:56:21;;;;;;;1.63;1.53;;;9.60;99.90;;;;;;5018479;28;20487;-80
2024/02/03 09:58:48;;;;;;;12.47;6.33;;;9.60;99.90;;;;;;5016896;28;20511;-79
2024/02/03 10:01:15;;;;;;;4.10;3.73;;;9.60;99.90;;;;;;5015632;28;20467;-80
2024/02/03 10:03:46;;;;;;;1.75;1.65;;;9.60;99.90;;;;;;5015023;28;20478;-79
2024/02/03 10:06:14;;;;;;;18.33;7.00;;;9.50;99.90;;;;;;5014801;28;20717;-79
2024/02/03 10:08:51;;;;;;;1.27;1.25;;;9.60;99.90;;;;;;5016627;28;20827;-79
2024/02/03 10:11:18;;;;;;;10.00;3.93;;;9.60;99.90;;;;;;5015124;28;20207;-79
2024/02/03 10:13:45;;;;;;;2.50;2.30;;;9.60;99.90;;;;;;5014042;28;20463;-79
2024/02/03 10:16:12;;;;;;;5.20;3.83;;;9.70;99.90;;;;;;5015005;28;20587;-78
2024/02/03 10:18:39;;;;;;;3.07;1.27;;;9.70;99.90;;;;;;5019105;28;20486;-78
2024/02/03 10:21:07;;;;;;;11.30;2.67;;;9.60;99.90;;;;;;5018636;28;20435;-79
2024/02/03 10:23:34;;;;;;;5.17;2.30;;;9.70;99.90;;;;;;5015116;28;20477;-78
2024/02/03 10:26:01;;;;;;;2.15;1.60;;;9.70;99.90;;;;;;5014908;28;20448;-81
2024/02/03 10:28:28;;;;;;;1.35;1.25;;;9.70;99.90;;;;;;5014262;28;20225;-79
2024/02/03 10:30:56;;;;;;;3.40;3.10;;;9.70;99.90;;;;;;5022292;28;20206;-80
2024/02/03 10:33:23;;;;;;;2.67;0.98;;;9.70;99.90;;;;;;5014882;28;20219;-79
2024/02/03 10:35:50;;;;;;;1.02;0.95;;;9.70;99.90;;;;;;5015801;28;20656;-80
2024/02/03 10:38:18;;;;;;;1.17;1.05;;;9.70;99.90;;;;;;5020630;28;20188;-79
2024/02/03 10:40:46;;;;;;;3.97;1.60;;;9.70;99.90;;;;;;5015612;28;20718;-79
2024/02/03 10:43:19;;;;;;;5.97;2.63;;;9.70;99.90;;;;;;5017323;28;20242;-78
2024/02/03 10:45:51;;;;;;;2.87;2.63;;;9.70;99.90;;;;;;5008527;28;20192;-79
2024/02/03 10:48:20;;;;;;;2.00;1.80;;;9.70;99.90;;;;;;5014985;28;20483;-79
2024/02/03 10:50:50;;;;;;;6.13;4.40;;;9.70;99.90;;;;;;5013927;28;20456;-79
2024/02/03 10:53:22;;;;;;;2.83;0.80;;;9.70;99.90;;;;;;5019447;28;20490;-81
2024/02/03 10:55:55;;;;;;;1.88;1.85;;;9.70;99.90;;;;;;5021390;28;20820;-81
2024/02/03 10:58:23;;;;;;;3.08;2.50;;;9.70;99.90;;;;;;5019003;28;20211;-80
2024/02/03 11:00:51;;;;;;;0.85;0.77;;;9.70;99.90;;;;;;5020734;28;20193;-80
2024/02/03 11:03:20;;;;;;;11.60;3.27;;;9.70;99.90;;;;;;5015059;28;20219;-80
2024/02/03 11:05:47;;;;;;;14.37;8.03;;;9.70;99.90;;;;;;5014244;28;20459;-80
2024/02/03 11:08:14;;;;;;;4.27;3.50;;;9.70;99.90;;;;;;5016179;28;20481;-82
2024/02/03 11:10:43;;;;;;;1.33;0.70;;;9.70;99.90;;;;;;5015452;28;20469;-81
2024/02/03 11:13:17;;;;;;;1.93;1.83;;;9.70;99.90;;;;;;5018330;28;21031;-80
2024/02/03 11:15:44;;;;;;;1.48;1.45;;;9.80;99.90;;;;;;5008943;28;20835;-81
2024/02/03 11:18:13;;;;;;;2.83;2.57;;;9.80;99.90;;;;;;5021510;28;20284;-81
2024/02/03 11:20:41;;;;;;;5.10;3.55;;;9.80;99.90;;;;;;5023016;28;20799;-81
2024/02/03 11:23:12;;;;;;;4.15;2.72;;;9.80;99.90;;;;;;5021591;28;20291;-81
2024/02/03 11:25:39;;;;;;;0.40;0.35;;;9.80;99.90;;;;;;5026359;28;20197;-81
2024/02/03 11:28:07;;;;;;;4.95;2.78;;;9.80;99.90;;;;;;5024046;28;20224;-79
2024/02/03 11:30:34;;;;;;;1.02;0.95;;;9.80;99.90;;;;;;5019506;28;20866;-80
2024/02/03 11:33:01;;;;;;;2.08;0.68;;;9.80;99.90;;;;;;5016128;28;20216;-81
2024/02/03 11:35:29;;;;;;;0.75;0.75;;;9.80;99.90;;;;;;5025747;28;20662;-82
2024/02/03 11:38:05;;;;;;;2.72;2.00;;;9.80;99.90;;;;;;5019423;28;20196;-82
2024/02/03 11:40:32;;;;;;;4.30;2.83;;;9.80;99.90;;;;;;5018528;28;20623;-82
2024/02/03 11:42:59;;;;;;;2.78;1.77;;;9.90;99.90;;;;;;5016696;28;20546;-84
2024/02/03 11:45:32;;;;;;;0.85;0.85;;;9.90;99.90;;;;;;5021023;28;20200;-79
2024/02/03 11:48:02;;;;;;;4.25;3.20;;;9.90;99.90;;;;;;5017377;28;20212;-79
2024/02/03 11:50:29;;;;;;;0.82;0.82;;;9.90;99.90;;;;;;5015380;28;20200;-81
2024/02/03 11:52:57;;;;;;;1.70;1.40;;;9.90;99.90;;;;;;5010621;28;20221;-80
2024/02/03 11:55:24;;;;;;;3.80;3.30;;;9.90;99.90;;;;;;5019184;28;20440;-79
2024/02/03 11:57:51;;;;;;;0.40;0.33;;;9.90;99.90;;;;;;5031902;28;20193;-78
2024/02/03 12:00:19;;;;;;;0.50;0.50;;;9.90;99.90;;;;;;5035368;28;20561;-79
2024/02/03 12:02:48;;;;;;;2.43;1.50;;;9.90;99.90;;;;;;5037691;28;20220;-79
2024/02/03 12:05:16;;;;;;;0.57;0.53;;;9.90;99.90;;;;;;5038480;28;20483;-79
2024/02/03 12:07:43;;;;;;;0.43;0.37;;;9.90;99.90;;;;;;5033151;28;20467;-79
2024/02/03 12:10:10;;;;;;;1.73;1.73;;;9.90;99.90;;;;;;5028797;28;20439;-80
2024/02/03 12:12:37;;;;;;;0.90;0.87;;;9.90;99.90;;;;;;5013731;28;20925;-79
2024/02/03 12:15:06;;;;;;;3.30;2.40;;;10.00;99.90;;;;;;5013551;28;20459;-79
2024/02/03 12:17:34;;;;;;;2.43;2.23;;;9.90;99.90;;;;;;5015151;28;20455;-79
2024/02/03 12:20:03;;;;;;;3.27;3.00;;;9.90;99.90;;;;;;5014843;28;20923;-80
2024/02/03 12:22:30;;;;;;;0.40;0.30;;;9.90;99.90;;;;;;5014082;28;20503;-79
2024/02/03 12:24:57;;;;;;;6.70;5.03;;;9.90;99.90;;;;;;5014700;28;20227;-79
2024/02/03 12:27:24;;;;;;;4.70;3.73;;;10.00;99.90;;;;;;5020197;28;20485;-79
2024/02/03 12:29:52;;;;;;;3.17;2.10;;;10.00;99.90;;;;;;5014568;28;20432;-80
2024/02/03 12:32:19;;;;;;;1.63;1.58;;;10.00;99.90;;;;;;5018034;28;20196;-82
2024/02/03 12:34:45;;;;;;;0.80;0.80;;;10.00;99.90;;;;;;5016730;28;20735;-82
2024/02/03 12:37:14;;;;;;;2.30;1.73;;;10.00;99.90;;;;;;5022809;28;20187;-82
2024/02/03 12:39:40;;;;;;;1.80;1.70;;;10.00;99.90;;;;;;5017403;28;20946;-82
2024/02/03 12:42:08;;;;;;;0.70;0.70;;;10.00;99.90;;;;;;5015926;28;20814;-82
2024/02/03 12:44:35;;;;;;;3.23;1.80;;;10.00;99.90;;;;;;5016550;28;20216;-80
2024/02/03 12:47:02;;;;;;;2.00;1.30;;;10.00;99.90;;;;;;5018672;28;20462;-82
2024/02/03 12:49:29;;;;;;;4.22;3.67;;;10.00;99.90;;;;;;5017626;28;20486;-81
2024/02/03 12:51:55;;;;;;;1.77;1.57;;;10.00;99.90;;;;;;5016219;28;20196;-81
2024/02/03 12:54:24;;;;;;;6.43;3.40;;;10.00;99.90;;;;;;5016070;28;20463;-81
2024/02/03 12:56:50;;;;;;;1.15;1.05;;;10.00;99.90;;;;;;5014582;28;20542;-80